createdAt,value
2019-05-19T00:00:45.398Z,21.50
2019-05-19T00:02:49.405Z,20.73
2019-05-19T00:04:53.420Z,22.97
2019-05-19T00:06:57.358Z,22.10
2019-05-19T00:09:01.256Z,25.17
2019-05-19T00:11:05.166Z,31.43
2019-05-19T00:13:09.094Z,26.77
2019-05-19T00:15:13.006Z,21.67
2019-05-19T00:17:16.909Z,24.50
2019-05-19T00:19:26.776Z,24.37
2019-05-19T00:21:26.364Z,28.23
2019-05-19T00:23:30.304Z,24.90
2019-05-19T00:25:34.663Z,25.97
2019-05-19T00:27:38.645Z,23.23
2019-05-19T00:29:42.597Z,22.13
2019-05-19T00:31:46.483Z,25.10
2019-05-19T00:33:50.426Z,14.17
2019-05-19T00:35:54.307Z,14.37
2019-05-19T00:37:58.262Z,22.70
2019-05-19T00:40:02.217Z,22.13
2019-05-19T00:42:06.172Z,22.13
2019-05-19T00:44:10.081Z,25.27
2019-05-19T00:46:14.005Z,24.53
2019-05-19T00:48:17.891Z,23.03
2019-05-19T00:50:21.833Z,22.43
2019-05-19T00:52:25.769Z,22.57
2019-05-19T00:54:29.732Z,22.87
2019-05-19T00:56:33.704Z,24.80
2019-05-19T00:58:38.408Z,25.97
2019-05-19T01:00:42.350Z,25.03
2019-05-19T01:02:46.248Z,24.33
2019-05-19T01:04:50.153Z,24.60
2019-05-19T01:06:54.078Z,24.13
2019-05-19T01:09:00.965Z,19.87
2019-05-19T01:11:05.285Z,16.77
2019-05-19T01:13:09.769Z,21.47
2019-05-19T01:15:14.622Z,19.03
2019-05-19T01:17:38.171Z,18.00
2019-05-19T01:19:55.226Z,21.80
2019-05-19T01:21:48.981Z,19.90
2019-05-19T01:23:52.904Z,19.23
2019-05-19T01:25:57.474Z,21.10
2019-05-19T01:28:03.570Z,15.23
2019-05-19T01:30:11.787Z,15.23
2019-05-19T01:32:15.956Z,19.50
2019-05-19T01:34:19.968Z,20.93
2019-05-19T01:36:23.888Z,22.00
2019-05-19T01:38:28.151Z,21.27
2019-05-19T01:40:32.343Z,22.13
2019-05-19T01:42:36.458Z,26.37
2019-05-19T01:44:40.362Z,23.93
2019-05-19T01:46:50.488Z,23.27
2019-05-19T01:48:54.506Z,26.80
2019-05-19T01:51:00.092Z,32.27
2019-05-19T01:53:04.469Z,38.47
2019-05-19T01:55:08.793Z,26.43
2019-05-19T01:57:13.033Z,27.10
2019-05-19T01:59:17.155Z,25.93
2019-05-19T02:01:21.148Z,22.63
2019-05-19T02:03:25.006Z,28.23
2019-05-19T02:05:28.902Z,25.70
2019-05-19T02:07:32.822Z,25.10
2019-05-19T02:09:36.838Z,30.83
2019-05-19T02:11:40.850Z,33.97
2019-05-19T02:13:44.876Z,24.67
2019-05-19T02:15:48.897Z,21.37
2019-05-19T02:17:52.757Z,20.67
2019-05-19T02:19:56.620Z,21.33
2019-05-19T02:22:00.854Z,14.80
2019-05-19T02:24:04.723Z,27.03
2019-05-19T02:26:08.585Z,18.90
2019-05-19T02:28:12.594Z,24.83
2019-05-19T02:30:16.566Z,19.47
2019-05-19T02:32:20.426Z,12.77
2019-05-19T02:34:24.350Z,15.73
2019-05-19T02:36:28.406Z,16.30
2019-05-19T02:38:32.507Z,19.47
2019-05-19T02:40:39.240Z,20.23
2019-05-19T02:42:45.156Z,29.47
2019-05-19T02:44:50.999Z,19.80
2019-05-19T02:46:55.596Z,26.37
2019-05-19T02:49:00.512Z,23.57
2019-05-19T02:51:06.349Z,22.57
2019-05-19T02:53:11.085Z,22.90
2019-05-19T02:55:15.822Z,24.23
2019-05-19T02:57:21.255Z,21.40
2019-05-19T02:59:26.409Z,23.73
2019-05-19T03:01:30.437Z,21.37
2019-05-19T03:03:34.300Z,19.53
2019-05-19T03:05:38.705Z,21.23
2019-05-19T03:07:42.590Z,15.70
2019-05-19T03:09:46.468Z,19.43
2019-05-19T03:11:50.330Z,20.33
2019-05-19T03:13:54.271Z,28.97
2019-05-19T03:15:58.150Z,24.90
2019-05-19T03:18:02.025Z,27.90
2019-05-19T03:20:07.173Z,30.90
2019-05-19T03:22:11.036Z,26.90
2019-05-19T03:24:14.951Z,18.47
2019-05-19T03:26:18.833Z,25.73
2019-05-19T03:28:22.737Z,22.97
2019-05-19T03:30:28.210Z,29.37
2019-05-19T03:32:36.679Z,26.77
2019-05-19T03:34:40.569Z,21.13
2019-05-19T03:36:44.496Z,20.27
2019-05-19T03:38:48.360Z,20.23
2019-05-19T03:40:52.381Z,18.33
2019-05-19T03:42:56.249Z,20.33
2019-05-19T03:45:00.118Z,19.00
2019-05-19T03:47:04.130Z,22.10
2019-05-19T03:49:07.998Z,22.67
2019-05-19T03:51:29.284Z,27.27
2019-05-19T03:53:17.425Z,27.00
2019-05-19T03:55:21.896Z,28.47
2019-05-19T03:57:25.839Z,31.70
2019-05-19T03:59:29.702Z,41.80
2019-05-19T04:01:33.617Z,39.40
2019-05-19T04:03:37.477Z,36.57
2019-05-19T04:05:41.355Z,30.73
2019-05-19T04:07:45.244Z,35.27
2019-05-19T04:09:49.107Z,36.17
2019-05-19T04:11:52.989Z,36.60
2019-05-19T04:13:56.958Z,37.47
2019-05-19T04:16:00.867Z,33.53
2019-05-19T04:18:04.728Z,40.17
2019-05-19T04:20:09.652Z,35.03
2019-05-19T04:22:13.553Z,41.87
2019-05-19T04:24:17.419Z,38.30
2019-05-19T04:26:21.327Z,39.63
2019-05-19T04:28:25.196Z,43.70
2019-05-19T04:30:29.071Z,46.33
2019-05-19T04:32:32.966Z,47.83
2019-05-19T04:34:36.849Z,64.13
2019-05-19T04:36:40.764Z,53.57
2019-05-19T04:38:44.633Z,53.23
2019-05-19T04:40:48.526Z,55.67
2019-05-19T04:42:52.429Z,50.13
2019-05-19T04:44:56.312Z,48.77
2019-05-19T04:47:00.177Z,39.33
2019-05-19T04:49:04.096Z,32.80
2019-05-19T04:51:07.960Z,33.87
2019-05-19T04:53:11.847Z,26.73
2019-05-19T04:55:15.729Z,27.53
2019-05-19T04:57:19.603Z,28.60
2019-05-19T04:59:23.517Z,24.10
2019-05-19T05:01:27.382Z,28.33
2019-05-19T05:03:31.304Z,32.07
2019-05-19T05:05:35.186Z,37.03
2019-05-19T05:07:39.064Z,34.77
2019-05-19T05:09:42.984Z,29.63
2019-05-19T05:11:46.939Z,37.67
2019-05-19T05:13:51.126Z,28.43
2019-05-19T05:15:55.081Z,28.43
2019-05-19T05:17:59.219Z,24.17
2019-05-19T05:20:04.816Z,25.10
2019-05-19T05:22:21.269Z,31.47
2019-05-19T05:24:14.462Z,26.80
2019-05-19T05:26:18.655Z,27.37
2019-05-19T05:28:22.533Z,29.27
2019-05-19T05:30:26.411Z,23.73
2019-05-19T05:32:30.321Z,41.07
2019-05-19T05:34:34.206Z,25.10
2019-05-19T05:36:38.084Z,25.10
2019-05-19T05:38:42.025Z,38.93
2019-05-19T05:40:46.684Z,25.23
2019-05-19T05:42:50.607Z,23.60
2019-05-19T05:44:54.488Z,25.17
2019-05-19T05:46:58.364Z,25.77
2019-05-19T05:49:02.267Z,27.07
2019-05-19T05:51:06.148Z,35.43
2019-05-19T05:53:10.052Z,32.83
2019-05-19T05:55:13.927Z,31.50
2019-05-19T05:57:17.951Z,44.90
2019-05-19T05:59:21.840Z,37.97
2019-05-19T06:01:25.718Z,44.00
2019-05-19T06:03:29.628Z,33.87
2019-05-19T06:05:33.507Z,34.63
2019-05-19T06:07:37.370Z,35.27
2019-05-19T06:09:41.256Z,28.37
2019-05-19T06:11:45.140Z,34.70
2019-05-19T06:13:49.748Z,42.53
2019-05-19T06:15:53.764Z,28.50
2019-05-19T06:17:57.629Z,28.50
2019-05-19T06:20:01.570Z,31.80
2019-05-19T06:22:05.741Z,30.10
2019-05-19T06:24:09.572Z,52.67
2019-05-19T06:26:13.494Z,33.17
2019-05-19T06:28:17.357Z,41.63
2019-05-19T06:30:21.226Z,50.40
2019-05-19T06:32:29.754Z,52.40
2019-05-19T06:34:34.185Z,54.23
2019-05-19T06:36:38.122Z,49.10
2019-05-19T06:38:42.027Z,24.67
2019-05-19T06:40:45.889Z,31.67
2019-05-19T06:42:49.871Z,30.53
2019-05-19T06:44:53.717Z,26.50
2019-05-19T06:46:57.580Z,25.50
2019-05-19T06:49:01.499Z,24.93
2019-05-19T06:51:05.373Z,25.80
2019-05-19T06:53:14.011Z,28.23
2019-05-19T06:55:14.811Z,34.90
2019-05-19T06:57:18.678Z,25.77
2019-05-19T06:59:22.593Z,24.33
2019-05-19T07:01:26.492Z,34.63
2019-05-19T07:03:30.374Z,46.63
2019-05-19T07:05:34.277Z,28.00
2019-05-19T07:07:38.192Z,23.53
2019-05-19T07:09:55.953Z,25.33
2019-05-19T07:11:47.604Z,28.17
2019-05-19T07:13:51.516Z,28.10
2019-05-19T07:15:55.382Z,28.33
2019-05-19T07:17:59.284Z,31.77
2019-05-19T07:20:03.160Z,31.13
2019-05-19T07:22:07.025Z,34.83
2019-05-19T07:24:10.939Z,30.40
2019-05-19T07:26:14.808Z,40.40
2019-05-19T07:28:18.719Z,32.40
2019-05-19T07:30:22.668Z,36.43
2019-05-19T07:32:26.588Z,38.33
2019-05-19T07:34:30.515Z,33.47
2019-05-19T07:36:34.492Z,32.70
2019-05-19T07:38:38.349Z,39.37
2019-05-19T07:40:42.264Z,40.47
2019-05-19T07:42:46.133Z,33.80
2019-05-19T07:44:49.992Z,28.37
2019-05-19T07:46:54.168Z,31.40
2019-05-19T07:48:58.032Z,30.07
2019-05-19T07:51:01.896Z,30.97
2019-05-19T07:53:05.800Z,32.73
2019-05-19T07:55:09.921Z,29.57
2019-05-19T07:57:13.798Z,34.77
2019-05-19T07:59:17.664Z,33.93
2019-05-19T08:01:21.529Z,36.27
2019-05-19T08:03:25.558Z,33.73
2019-05-19T08:05:29.416Z,28.50
2019-05-19T08:07:33.314Z,32.83
2019-05-19T08:09:37.251Z,33.33
2019-05-19T08:11:41.109Z,27.13
2019-05-19T08:13:45.009Z,27.07
2019-05-19T08:15:48.886Z,27.17
2019-05-19T08:17:52.754Z,29.10
2019-05-19T08:19:57.029Z,29.30
2019-05-19T08:22:01.248Z,25.80
2019-05-19T08:24:05.436Z,26.03
2019-05-19T08:26:09.810Z,25.87
2019-05-19T08:28:13.954Z,24.13
2019-05-19T08:30:18.250Z,22.73
2019-05-19T08:32:23.215Z,23.63
2019-05-19T08:34:28.002Z,25.93
2019-05-19T08:36:32.976Z,24.07
2019-05-19T08:38:37.693Z,28.17
2019-05-19T08:40:42.252Z,25.20
2019-05-19T08:42:46.389Z,23.37
2019-05-19T08:44:50.285Z,23.20
2019-05-19T08:46:55.204Z,22.17
2019-05-19T08:48:59.106Z,27.70
2019-05-19T08:51:03.618Z,24.87
2019-05-19T08:53:07.529Z,25.23
2019-05-19T08:55:12.103Z,22.53
2019-05-19T08:57:15.981Z,18.83
2019-05-19T08:59:19.892Z,26.17
2019-05-19T09:01:23.875Z,23.30
2019-05-19T09:03:27.768Z,22.60
2019-05-19T09:05:38.137Z,22.87
2019-05-19T09:07:42.581Z,23.13
2019-05-19T09:09:46.915Z,19.27
2019-05-19T09:11:51.112Z,20.70
2019-05-19T09:13:55.133Z,18.93
2019-05-19T09:15:59.510Z,21.57
2019-05-19T09:18:04.628Z,21.30
2019-05-19T09:20:08.798Z,26.03
2019-05-19T09:22:13.085Z,19.90
2019-05-19T09:24:29.488Z,20.77
2019-05-19T09:26:23.084Z,16.73
2019-05-19T09:28:27.056Z,15.87
2019-05-19T09:30:31.449Z,21.90
2019-05-19T09:32:36.185Z,17.17
2019-05-19T09:34:40.242Z,15.57
2019-05-19T09:36:44.483Z,15.13
2019-05-19T09:38:49.002Z,13.97
2019-05-19T09:40:52.934Z,15.77
2019-05-19T09:42:56.815Z,14.83
2019-05-19T09:45:00.716Z,15.63
2019-05-19T09:47:04.608Z,14.20
2019-05-19T09:49:26.700Z,14.80
2019-05-19T09:51:30.615Z,12.93
2019-05-19T09:53:34.478Z,13.57
2019-05-19T09:55:42.594Z,12.40
2019-05-19T09:57:46.493Z,12.70
2019-05-19T09:59:50.461Z,14.57
2019-05-19T10:01:54.368Z,11.57
2019-05-19T10:03:58.252Z,11.40
2019-05-19T10:06:02.175Z,12.83
2019-05-19T10:08:06.119Z,11.57
2019-05-19T10:10:20.261Z,11.00
2019-05-19T10:12:24.672Z,12.83
2019-05-19T10:14:28.595Z,12.03
2019-05-19T10:16:32.504Z,13.60
2019-05-19T10:18:36.376Z,12.00
2019-05-19T10:20:40.244Z,11.13
2019-05-19T10:22:44.177Z,12.67
2019-05-19T10:25:03.767Z,10.43
2019-05-19T10:26:53.550Z,10.77
2019-05-19T10:28:57.467Z,11.33
2019-05-19T10:31:01.329Z,8.60
2019-05-19T10:33:05.255Z,8.87
2019-05-19T10:35:09.226Z,11.23
2019-05-19T10:37:13.076Z,9.83
2019-05-19T10:39:17.681Z,11.70
2019-05-19T10:41:21.559Z,10.87
2019-05-19T10:43:25.408Z,10.53
2019-05-19T10:45:29.309Z,10.93
2019-05-19T10:47:33.227Z,10.97
2019-05-19T10:49:37.161Z,9.37
2019-05-19T10:51:41.027Z,10.50
2019-05-19T10:53:44.924Z,7.77
2019-05-19T10:55:48.832Z,10.57
2019-05-19T10:57:52.753Z,10.20
2019-05-19T10:59:56.656Z,9.33
2019-05-19T11:02:00.527Z,14.17
2019-05-19T11:04:04.383Z,8.40
2019-05-19T11:06:08.332Z,10.67
2019-05-19T11:08:12.189Z,9.30
2019-05-19T11:10:17.066Z,10.50
2019-05-19T11:12:21.000Z,7.20
2019-05-19T11:14:24.861Z,7.97
2019-05-19T11:16:28.776Z,8.73
2019-05-19T11:18:32.680Z,7.10
2019-05-19T11:20:36.595Z,7.60
2019-05-19T11:22:40.584Z,7.60
2019-05-19T11:24:44.441Z,9.40
2019-05-19T11:26:49.940Z,9.23
2019-05-19T11:28:54.055Z,7.43
2019-05-19T11:30:58.008Z,9.90
2019-05-19T11:33:01.913Z,9.10
2019-05-19T11:35:07.580Z,7.67
2019-05-19T11:37:11.487Z,21.10
2019-05-19T11:39:15.479Z,8.13
2019-05-19T11:41:19.627Z,7.90
2019-05-19T11:43:23.503Z,9.40
2019-05-19T11:45:27.496Z,8.57
2019-05-19T11:47:31.468Z,11.03
2019-05-19T11:49:35.506Z,9.03
2019-05-19T11:51:39.417Z,10.07
2019-05-19T11:53:43.275Z,9.47
2019-05-19T11:55:47.203Z,9.37
2019-05-19T11:57:51.754Z,12.00
2019-05-19T11:59:55.589Z,9.73
2019-05-19T12:02:00.098Z,12.07
2019-05-19T12:04:04.405Z,11.90
2019-05-19T12:06:08.307Z,9.70
2019-05-19T12:08:12.500Z,11.00
2019-05-19T12:10:16.471Z,13.30
2019-05-19T12:12:20.625Z,15.43
2019-05-19T12:14:24.886Z,9.97
2019-05-19T12:16:29.084Z,11.37
2019-05-19T12:18:33.657Z,13.17
2019-05-19T12:20:37.551Z,10.20
2019-05-19T12:22:41.464Z,11.93
2019-05-19T12:24:45.551Z,11.27
2019-05-19T12:26:49.653Z,11.37
2019-05-19T12:28:53.590Z,12.27
2019-05-19T12:30:57.812Z,10.60
2019-05-19T12:33:03.534Z,11.30
2019-05-19T12:35:10.733Z,11.83
2019-05-19T12:37:14.649Z,9.87
2019-05-19T12:39:19.308Z,10.40
2019-05-19T12:41:23.176Z,9.77
2019-05-19T12:43:27.623Z,11.10
2019-05-19T12:45:31.504Z,11.00
2019-05-19T12:47:35.438Z,8.77
2019-05-19T12:49:39.342Z,10.77
2019-05-19T12:51:43.209Z,8.80
2019-05-19T12:53:47.121Z,12.20
2019-05-19T12:55:51.140Z,11.27
2019-05-19T12:57:55.017Z,19.33
2019-05-19T12:59:58.892Z,12.07
2019-05-19T13:02:03.096Z,12.93
2019-05-19T13:04:06.959Z,13.27
2019-05-19T13:06:10.882Z,16.27
2019-05-19T13:08:14.749Z,10.10
2019-05-19T13:10:18.709Z,10.27
2019-05-19T13:12:22.581Z,9.73
2019-05-19T13:14:26.449Z,14.10
2019-05-19T13:16:30.349Z,9.77
2019-05-19T13:18:34.255Z,8.97
2019-05-19T13:20:38.182Z,11.43
2019-05-19T13:22:42.097Z,8.33
2019-05-19T13:24:46.014Z,9.50
2019-05-19T13:26:56.491Z,11.07
2019-05-19T13:28:55.411Z,10.70
2019-05-19T13:30:59.350Z,9.37
2019-05-19T13:33:03.255Z,12.20
2019-05-19T13:35:07.588Z,10.33
2019-05-19T13:37:11.501Z,11.23
2019-05-19T13:39:15.384Z,10.80
2019-05-19T13:41:19.269Z,8.90
2019-05-19T13:43:26.428Z,12.57
2019-05-19T13:45:30.316Z,9.63
2019-05-19T13:47:34.261Z,12.10
2019-05-19T13:49:38.140Z,11.60
2019-05-19T13:51:42.000Z,10.33
2019-05-19T13:53:45.901Z,12.17
2019-05-19T13:55:49.821Z,11.50
2019-05-19T13:57:53.671Z,14.40
2019-05-19T13:59:58.931Z,13.47
2019-05-19T14:02:02.797Z,10.23
2019-05-19T14:04:06.657Z,8.27
2019-05-19T14:06:10.567Z,8.30
2019-05-19T14:08:14.434Z,8.87
2019-05-19T14:10:18.347Z,7.67
2019-05-19T14:12:22.213Z,8.17
2019-05-19T14:14:26.086Z,5.73
2019-05-19T14:16:30.010Z,4.97
2019-05-19T14:18:33.919Z,8.13
2019-05-19T14:20:38.968Z,6.27
2019-05-19T14:22:42.832Z,7.53
2019-05-19T14:24:46.710Z,6.50
2019-05-19T14:26:50.633Z,8.80
2019-05-19T14:28:54.504Z,5.33
2019-05-19T14:30:58.394Z,10.77
2019-05-19T14:33:02.302Z,11.53
2019-05-19T14:35:06.978Z,9.20
2019-05-19T14:37:10.984Z,7.37
2019-05-19T14:39:16.742Z,7.63
2019-05-19T14:41:32.963Z,7.03
2019-05-19T14:43:28.646Z,5.57
2019-05-19T14:45:32.846Z,6.57
2019-05-19T14:47:37.887Z,6.93
2019-05-19T14:49:41.840Z,5.20
2019-05-19T14:51:45.708Z,6.47
2019-05-19T14:53:49.633Z,5.60
2019-05-19T14:55:53.497Z,5.97
2019-05-19T14:58:00.287Z,5.90
2019-05-19T15:00:06.034Z,4.80
2019-05-19T15:02:10.279Z,7.50
2019-05-19T15:04:14.176Z,5.37
2019-05-19T15:06:18.068Z,8.70
2019-05-19T15:08:21.908Z,5.17
2019-05-19T15:10:25.801Z,5.47
2019-05-19T15:12:30.069Z,6.60
2019-05-19T15:14:33.931Z,7.50
2019-05-19T15:16:37.930Z,6.07
2019-05-19T15:18:41.788Z,7.00
2019-05-19T15:20:47.169Z,7.40
2019-05-19T15:22:51.024Z,6.90
2019-05-19T15:24:54.892Z,7.47
2019-05-19T15:26:58.818Z,7.43
2019-05-19T15:29:02.668Z,5.53
2019-05-19T15:31:06.672Z,5.90
2019-05-19T15:33:10.761Z,6.50
2019-05-19T15:35:14.632Z,6.77
2019-05-19T15:37:18.707Z,7.13
2019-05-19T15:39:22.570Z,8.00
2019-05-19T15:41:26.448Z,7.67
2019-05-19T15:43:30.669Z,6.67
2019-05-19T15:45:35.315Z,8.87
2019-05-19T15:47:39.300Z,7.47
2019-05-19T15:49:43.164Z,8.43
2019-05-19T15:52:00.296Z,8.47
2019-05-19T15:53:54.062Z,8.83
2019-05-19T15:55:57.938Z,8.10
2019-05-19T15:58:15.528Z,7.60
2019-05-19T16:00:08.648Z,8.60
2019-05-19T16:02:12.665Z,7.07
2019-05-19T16:04:16.551Z,7.37
2019-05-19T16:06:20.428Z,8.77
2019-05-19T16:08:24.346Z,6.80
2019-05-19T16:10:28.210Z,7.87
2019-05-19T16:12:32.073Z,7.40
2019-05-19T16:14:35.977Z,7.83
2019-05-19T16:16:39.840Z,7.47
2019-05-19T16:18:43.704Z,6.20
2019-05-19T16:20:47.620Z,6.47
2019-05-19T16:22:51.546Z,6.93
2019-05-19T16:24:55.569Z,5.33
2019-05-19T16:26:59.414Z,5.97
2019-05-19T16:29:03.307Z,5.23
2019-05-19T16:31:07.179Z,7.40
2019-05-19T16:33:11.048Z,7.10
2019-05-19T16:35:15.184Z,6.03
2019-05-19T16:37:19.050Z,5.10
2019-05-19T16:39:22.912Z,3.90
2019-05-19T16:41:26.820Z,4.73
2019-05-19T16:43:30.684Z,4.20
2019-05-19T16:45:34.600Z,4.30
2019-05-19T16:47:38.492Z,3.83
2019-05-19T16:49:42.352Z,4.60
2019-05-19T16:51:46.216Z,4.07
2019-05-19T16:53:51.692Z,3.80
2019-05-19T16:55:55.564Z,4.80
2019-05-19T16:57:59.469Z,5.53
2019-05-19T17:00:03.333Z,4.80
2019-05-19T17:02:07.197Z,6.13
2019-05-19T17:04:11.090Z,5.47
2019-05-19T17:06:14.956Z,5.00
2019-05-19T17:08:18.829Z,5.37
2019-05-19T17:10:22.739Z,5.23
2019-05-19T17:12:26.625Z,6.83
2019-05-19T17:14:30.526Z,4.83
2019-05-19T17:16:34.388Z,5.73
2019-05-19T17:18:38.299Z,6.97
2019-05-19T17:20:42.311Z,5.70
2019-05-19T17:22:47.349Z,5.07
2019-05-19T17:24:51.208Z,7.40
2019-05-19T17:26:55.122Z,6.93
2019-05-19T17:29:00.858Z,5.43
2019-05-19T17:31:07.505Z,6.07
2019-05-19T17:33:10.101Z,5.77
2019-05-19T17:35:14.070Z,5.43
2019-05-19T17:37:17.923Z,5.27
2019-05-19T17:39:21.828Z,4.60
2019-05-19T17:41:25.696Z,6.00
2019-05-19T17:43:29.613Z,4.87
2019-05-19T17:45:33.576Z,5.03
2019-05-19T17:47:37.436Z,5.07
2019-05-19T17:49:42.953Z,5.03
2019-05-19T17:51:46.815Z,5.17
2019-05-19T17:53:50.702Z,4.77
2019-05-19T17:55:55.700Z,4.77
2019-05-19T17:58:01.472Z,5.03
2019-05-19T18:00:10.280Z,5.80
2019-05-19T18:02:14.168Z,6.07
2019-05-19T18:04:18.027Z,5.10
2019-05-19T18:06:21.940Z,4.50
2019-05-19T18:08:25.800Z,5.43
2019-05-19T18:10:29.665Z,5.10
2019-05-19T18:12:33.587Z,7.70
2019-05-19T18:14:37.462Z,5.13
2019-05-19T18:16:42.292Z,5.20
2019-05-19T18:18:46.235Z,4.83
2019-05-19T18:20:50.098Z,5.03
2019-05-19T18:22:54.006Z,3.90
2019-05-19T18:24:57.856Z,3.87
2019-05-19T18:27:01.796Z,4.73
2019-05-19T18:29:05.663Z,3.73
2019-05-19T18:31:09.512Z,4.10
2019-05-19T18:33:13.416Z,6.37
2019-05-19T18:35:17.293Z,3.93
2019-05-19T18:37:21.658Z,4.10
2019-05-19T18:39:25.583Z,4.87
2019-05-19T18:41:29.408Z,5.10
2019-05-19T18:43:34.408Z,4.83
2019-05-19T18:45:38.482Z,4.53
2019-05-19T18:47:44.120Z,4.83
2019-05-19T18:49:48.100Z,4.90
2019-05-19T18:51:52.055Z,4.70
2019-05-19T18:53:56.006Z,7.23
2019-05-19T18:55:59.987Z,5.13
2019-05-19T18:58:03.990Z,4.67
2019-05-19T19:00:09.188Z,7.37
2019-05-19T19:02:13.090Z,6.27
2019-05-19T19:04:18.835Z,6.57
2019-05-19T19:06:25.169Z,5.07
2019-05-19T19:08:29.118Z,5.13
2019-05-19T19:10:32.985Z,5.13
2019-05-19T19:12:36.882Z,4.87
2019-05-19T19:14:40.762Z,5.43
2019-05-19T19:16:44.646Z,5.70
2019-05-19T19:18:48.560Z,4.93
2019-05-19T19:20:52.429Z,5.93
2019-05-19T19:22:56.330Z,6.53
2019-05-19T19:25:00.224Z,5.17
2019-05-19T19:27:04.105Z,5.50
2019-05-19T19:29:08.132Z,6.87
2019-05-19T19:31:12.109Z,7.40
2019-05-19T19:33:15.986Z,6.17
2019-05-19T19:35:20.617Z,5.90
2019-05-19T19:37:24.499Z,7.13
2019-05-19T19:39:28.395Z,5.67
2019-05-19T19:41:33.413Z,6.90
2019-05-19T19:43:39.100Z,6.93
2019-05-19T19:45:44.574Z,7.77
2019-05-19T19:47:48.469Z,6.13
2019-05-19T19:49:52.504Z,5.80
2019-05-19T19:51:56.387Z,5.53
2019-05-19T19:54:00.368Z,7.47
2019-05-19T19:56:04.356Z,7.17
2019-05-19T19:58:09.278Z,7.60
2019-05-19T20:00:18.413Z,6.00
2019-05-19T20:02:19.455Z,6.07
2019-05-19T20:04:23.363Z,6.53
2019-05-19T20:06:27.933Z,19.77
2019-05-19T20:08:32.350Z,5.23
2019-05-19T20:10:37.340Z,5.13
2019-05-19T20:12:41.419Z,7.60
2019-05-19T20:14:46.461Z,7.50
2019-05-19T20:16:51.369Z,7.87
2019-05-19T20:18:55.354Z,7.50
2019-05-19T20:20:59.319Z,7.07
2019-05-19T20:23:03.365Z,7.83
2019-05-19T20:25:09.289Z,9.73
2019-05-19T20:27:13.196Z,8.00
2019-05-19T20:29:17.472Z,8.23
2019-05-19T20:31:23.244Z,7.87
2019-05-19T20:33:27.410Z,6.73
2019-05-19T20:35:31.931Z,6.30
2019-05-19T20:37:37.133Z,5.77
2019-05-19T20:39:41.369Z,5.50
2019-05-19T20:41:46.920Z,5.77
2019-05-19T20:43:50.953Z,6.60
2019-05-19T20:45:54.831Z,5.30
2019-05-19T20:47:58.728Z,5.93
2019-05-19T20:50:02.790Z,6.13
2019-05-19T20:52:07.880Z,6.97
2019-05-19T20:54:11.746Z,6.10
2019-05-19T20:56:15.697Z,6.90
2019-05-19T20:58:19.573Z,8.17
2019-05-19T21:00:23.782Z,9.63
2019-05-19T21:02:33.136Z,9.57
2019-05-19T21:04:37.393Z,8.17
2019-05-19T21:06:41.269Z,8.60
2019-05-19T21:08:45.368Z,11.07
2019-05-19T21:10:49.441Z,10.07
2019-05-19T21:12:53.662Z,7.70
2019-05-19T21:14:57.882Z,8.83
2019-05-19T21:17:02.061Z,10.20
2019-05-19T21:19:10.363Z,10.17
2019-05-19T21:21:17.817Z,7.03
2019-05-19T21:23:22.529Z,6.00
2019-05-19T21:25:26.695Z,8.93
2019-05-19T21:27:31.164Z,5.57
2019-05-19T21:29:35.854Z,6.37
2019-05-19T21:31:40.218Z,5.47
2019-05-19T21:33:44.433Z,6.97
2019-05-19T21:35:48.348Z,6.13
2019-05-19T21:37:52.268Z,6.73
2019-05-19T21:39:59.301Z,5.40
2019-05-19T21:42:03.425Z,8.83
2019-05-19T21:44:07.487Z,8.90
2019-05-19T21:46:11.330Z,8.63
2019-05-19T21:48:15.189Z,7.13
2019-05-19T21:50:19.363Z,7.93
2019-05-19T21:52:23.541Z,8.53
2019-05-19T21:54:27.760Z,8.37
2019-05-19T21:56:32.057Z,13.27
2019-05-19T21:58:36.116Z,9.40
2019-05-19T22:00:40.876Z,7.77
2019-05-19T22:02:44.850Z,9.80
2019-05-19T22:04:49.568Z,7.17
2019-05-19T22:07:01.303Z,5.87
2019-05-19T22:09:06.187Z,6.27
2019-05-19T22:11:10.620Z,7.20
2019-05-19T22:13:14.715Z,10.57
2019-05-19T22:15:18.862Z,6.60
2019-05-19T22:17:22.980Z,8.90
2019-05-19T22:19:27.413Z,8.30
2019-05-19T22:21:31.711Z,9.33
2019-05-19T22:23:36.015Z,9.27
2019-05-19T22:25:39.903Z,6.93
2019-05-19T22:27:43.830Z,8.37
2019-05-19T22:29:47.735Z,10.40
2019-05-19T22:31:52.343Z,7.60
2019-05-19T22:33:56.296Z,8.47
2019-05-19T22:36:00.743Z,7.03
2019-05-19T22:38:04.857Z,7.37
2019-05-19T22:40:09.022Z,7.23
2019-05-19T22:42:13.159Z,6.73
2019-05-19T22:44:20.147Z,7.53
2019-05-19T22:46:23.029Z,8.37
2019-05-19T22:48:26.891Z,8.73
2019-05-19T22:50:31.074Z,7.57
2019-05-19T22:52:35.332Z,6.83
2019-05-19T22:54:40.211Z,8.60
2019-05-19T22:56:44.468Z,8.00
2019-05-19T22:58:48.733Z,7.50
2019-05-19T23:00:52.943Z,8.03
2019-05-19T23:02:57.104Z,6.93
2019-05-19T23:05:01.250Z,9.47
2019-05-19T23:07:05.256Z,8.43
2019-05-19T23:09:09.105Z,8.33
2019-05-19T23:11:13.033Z,7.53
2019-05-19T23:13:16.884Z,8.20
2019-05-19T23:15:21.767Z,8.40
2019-05-19T23:17:26.474Z,8.10
2019-05-19T23:19:30.406Z,7.23
2019-05-19T23:21:34.597Z,9.00
2019-05-19T23:23:38.703Z,8.33
2019-05-19T23:25:42.668Z,7.30
2019-05-19T23:27:46.545Z,9.63
2019-05-19T23:29:50.521Z,8.53
2019-05-19T23:32:06.251Z,7.60
2019-05-19T23:34:00.059Z,8.20
2019-05-19T23:36:03.935Z,7.13
2019-05-19T23:38:07.843Z,7.60
2019-05-19T23:40:11.867Z,7.63
2019-05-19T23:42:17.022Z,8.03
2019-05-19T23:44:21.023Z,8.17
2019-05-19T23:46:24.897Z,6.60
2019-05-19T23:48:28.758Z,9.70
2019-05-19T23:50:32.839Z,9.80
2019-05-19T23:52:36.850Z,8.30
2019-05-19T23:54:40.872Z,7.93
2019-05-19T23:56:44.736Z,8.17
2019-05-19T23:58:48.600Z,7.50
